Pagina principale
METAR-TAF:

METAR-TAF

Aeroporti :

Aeroporto di Bastia Poretta

Bastia, Francia

latitudine: 42-33N, longitudine: 009-29E, altezza: 8 m

Osservazione

Il bollettino è stato emesso 20 minuti fa, alle 14:30 UTC
Vento 4 kt da nord/nord-est
Temperature
Pressione 1013 hPa
Visibilità 10 km o più
Poco nuvoloso ad un'altezza di 2300 ft
Nuvoloso ad un'altezza di 18000 ft

METAR: LFKB 061430Z AUTO 03004KT 9999 FEW023 BKN180 ///// Q1013 NOSIG

Ora: 15:50 (14:50 UTC)

Previsione

Il bollettino è stato emesso 50 minuti fa, alle 14:00 UTC
Previsione valida dal 06 alle 15 UTC al 07 alle 15 UTC
Vento 5 kt da nord
Visibilità 10 km o più
Poco nuvoloso ad un'altezza di 2000 ft
Nubi sparse ad un'altezza di 16000 ft
Temporaneamente
dal 07 alle 12 UTC al 07 alle 15 UTC
Vento 10 kt da sud-est

TAF: LFKB 061400Z 0615/0715 01005KT 9999 FEW020 SCT160 TX17/0712Z TN09/0705Z TEMPO 0712/0715 13010KT

Osservazioni e previsioni meteorologiche di più di 4000 aeroporti (messaggi METAR e TAF).

Le stazioni disponibili sono rappresentate dai dischi gialli e rossi sulla carta.

Puntare il mouse per vedere il nome della stazione.

Clicca sopra per visualizzare le osservazioni e previsioni meteorologiche.

Per cambiare la mappa : fare clic sui pulsanti verdi con una croce nera per ingrandire, il pulsante verde con un trattino per diminuire, o sulla freccia verde per le mappe adiacenti.


METAR-TAF: